Time;durP1;ratioP1;P1;durP2;ratioP2;P2;SDS_P1;SDS_P2;PMS_P1;PMS_P2;Temp;Humidity;BMP_temperature;BMP_pressure;BME280_temperature;BME280_humidity;BME280_pressure;Samples;Min_cycle;Max_cycle;Signal;HPM_P1;HPM_P2
2022/12/07 00:01:07;;;;;;;11.75;6.55;;;;;;;6.41;81.34;101744.09;5034905;28;20037;-84
2022/12/07 00:03:32;;;;;;;9.30;6.30;;;;;;;6.43;81.51;101752.94;5034792;28;20136;-85
2022/12/07 00:05:58;;;;;;;9.02;6.47;;;;;;;6.23;81.76;101731.09;5034795;28;20507;-84
2022/12/07 00:08:24;;;;;;;9.35;6.13;;;;;;;6.23;81.73;101731.09;5017027;28;20393;-84
2022/12/07 00:10:49;;;;;;;8.77;6.32;;;;;;;6.31;81.86;101747.19;5034384;28;20040;-84
2022/12/07 00:13:14;;;;;;;10.60;6.82;;;;;;;6.30;82.10;101757.63;5034602;28;20079;-84
2022/12/07 00:15:40;;;;;;;9.25;5.80;;;;;;;6.34;81.67;101749.00;5034516;28;20374;-84
2022/12/07 00:18:05;;;;;;;11.05;6.45;;;;;;;6.26;82.05;101740.84;5016858;28;20110;-84
2022/12/07 00:20:31;;;;;;;9.75;6.28;;;;;;;6.25;81.26;101753.06;5016634;28;20132;-84
2022/12/07 00:22:57;;;;;;;15.15;6.97;;;;;;;6.10;81.63;101731.41;5034243;28;20025;-83
2022/12/07 00:25:22;;;;;;;11.23;6.25;;;;;;;6.06;81.53;101732.09;5034177;28;20445;-83
2022/12/07 00:27:47;;;;;;;9.02;6.00;;;;;;;5.96;82.41;101716.81;4999107;28;20041;-84
2022/12/07 00:30:13;;;;;;;10.70;6.53;;;;;;;6.02;82.00;101733.69;5034066;28;20039;-84
2022/12/07 00:32:38;;;;;;;12.18;6.82;;;;;;;6.01;81.94;101725.75;5016426;28;20120;-84
2022/12/07 00:35:04;;;;;;;10.15;6.55;;;;;;;5.89;82.04;101707.72;5034058;28;20051;-84
2022/12/07 00:37:29;;;;;;;9.68;6.32;;;;;;;5.99;82.54;101716.91;5034384;28;20064;-84
2022/12/07 00:39:55;;;;;;;13.23;6.38;;;;;;;5.86;81.74;101696.19;5016156;28;20092;-84
2022/12/07 00:42:20;;;;;;;12.60;7.07;;;;;;;6.03;82.28;101731.97;5034214;28;20064;-84
2022/12/07 00:44:45;;;;;;;13.50;6.95;;;;;;;6.07;81.89;101727.75;5033595;28;20041;-84
2022/12/07 00:47:11;;;;;;;10.20;6.60;;;;;;;6.03;81.37;101727.59;5016333;28;20033;-84
2022/12/07 00:49:36;;;;;;;9.18;6.07;;;;;;;5.96;81.50;101716.81;5033773;28;20045;-84
2022/12/07 00:52:02;;;;;;;10.13;7.18;;;;;;;5.99;81.49;101733.53;5016166;28;20529;-84
2022/12/07 00:54:27;;;;;;;13.35;6.28;;;;;;;5.98;81.72;101730.88;5016297;28;20037;-84
2022/12/07 00:56:52;;;;;;;9.02;6.05;;;;;;;5.99;82.00;101737.91;5033843;28;20033;-83
2022/12/07 00:59:18;;;;;;;8.35;6.07;;;;;;;5.95;81.94;101730.72;5016092;28;20095;-84
2022/12/07 01:01:43;;;;;;;9.45;6.35;;;;;;;5.82;82.08;101723.13;5016161;28;20037;-84
2022/12/07 01:04:09;;;;;;;12.82;6.68;;;;;;;5.81;82.60;101723.97;5033942;28;20030;-85
2022/12/07 01:06:34;;;;;;;12.48;6.82;;;;;;;5.80;82.37;101730.94;5033973;28;20069;-84
2022/12/07 01:09:00;;;;;;;8.77;5.90;;;;;;;5.74;82.54;101713.22;5033611;28;20108;-84
2022/12/07 01:11:28;;;;;;;10.52;6.10;;;;;;;5.65;82.60;101704.94;5033721;28;20057;-84
2022/12/07 01:13:56;;;;;;;9.63;6.25;;;;;;;5.57;82.60;101698.47;5033904;28;20041;-84
2022/12/07 01:16:23;;;;;;;11.13;6.20;;;;;;;5.68;82.73;101712.03;5033250;28;20074;-84
2022/12/07 01:18:51;;;;;;;8.60;6.10;;;;;;;5.70;82.81;101710.38;5033378;28;20423;-84
2022/12/07 01:21:20;;;;;;;11.77;6.25;;;;;;;5.78;82.26;101723.00;5033250;28;20033;-84
2022/12/07 01:23:46;;;;;;;10.30;6.00;;;;;;;5.72;83.01;101709.59;5033392;28;20036;-83
2022/12/07 01:26:14;;;;;;;10.38;5.90;;;;;;;5.70;82.08;101711.28;5033245;28;20041;-84
2022/12/07 01:28:39;;;;;;;11.13;5.75;;;;;;;5.70;82.73;101708.66;5033555;28;20030;-84
2022/12/07 01:31:08;;;;;;;9.15;5.80;;;;;;;5.64;82.20;101703.13;5033756;28;20124;-84
2022/12/07 01:33:36;;;;;;;10.60;5.80;;;;;;;5.75;82.94;101733.34;5015749;28;20029;-83
2022/12/07 01:36:12;;;;;;;9.18;6.10;;;;;;;5.80;82.79;101730.03;5032756;28;20053;-83
2022/12/07 01:38:38;;;;;;;9.38;5.38;;;;;;;5.72;83.15;101713.97;5034147;28;20386;-85
2022/12/07 01:41:04;;;;;;;10.77;5.93;;;;;;;5.80;83.12;101719.56;5019246;28;20029;-84
2022/12/07 01:43:31;;;;;;;8.15;5.68;;;;;;;5.81;83.40;101723.97;5037277;28;20398;-84
2022/12/07 01:45:57;;;;;;;11.25;5.80;;;;;;;5.79;83.33;101718.66;5037150;28;20120;-85
2022/12/07 01:48:49;;;;;;;8.90;5.63;;;;;;;5.95;83.12;101726.41;5036612;28;20061;-86
2022/12/07 01:51:15;;;;;;;9.13;5.70;;;;;;;5.89;83.48;101712.06;5033830;28;20056;-84
2022/12/07 01:53:45;;;;;;;12.07;5.85;;;;;;;5.84;83.78;101714.50;5036639;28;20401;-84
2022/12/07 01:56:18;;;;;;;7.95;5.20;;;;;;;5.94;83.92;101723.69;5037005;28;20037;-85
2022/12/07 01:58:44;;;;;;;8.13;5.00;;;;;;;5.90;84.05;101708.63;5036800;28;20030;-84
2022/12/07 02:01:10;;;;;;;10.82;5.47;;;;;;;5.91;83.53;101708.72;5036671;28;20414;-84
2022/12/07 02:03:41;;;;;;;10.55;5.40;;;;;;;5.98;83.55;101710.78;5036775;28;20130;-84
2022/12/07 02:06:08;;;;;;;7.68;5.13;;;;;;;6.05;83.62;101721.56;5036352;28;20482;-84
2022/12/07 02:08:34;;;;;;;8.50;5.10;;;;;;;5.90;83.38;101695.50;5002934;28;20029;-84
2022/12/07 02:11:04;;;;;;;9.40;5.72;;;;;;;5.94;83.56;101710.56;5018771;28;20041;-84
2022/12/07 02:13:32;;;;;;;8.07;5.13;;;;;;;5.86;82.99;101688.34;5036091;28;20029;-84
2022/12/07 02:16:07;;;;;;;7.85;4.75;;;;;;;6.06;83.55;101725.97;5036302;28;20128;-84
2022/12/07 02:19:01;;;;;;;9.57;5.20;;;;;;;5.83;82.96;101690.84;5036039;28;20115;-84
2022/12/07 02:21:57;;;;;;;9.15;5.40;;;;;;;5.90;82.56;101708.63;5036490;28;20029;-84
2022/12/07 02:24:51;;;;;;;9.70;5.55;;;;;;;5.95;83.27;101715.00;5018681;28;20426;-84
2022/12/07 02:27:43;;;;;;;7.78;5.05;;;;;;;5.90;82.53;101720.00;5036194;28;20033;-84
2022/12/07 02:30:20;;;;;;;8.13;5.20;;;;;;;5.78;83.24;101695.84;5036263;28;20033;-85
2022/12/07 02:33:41;;;;;;;9.05;5.28;;;;;;;5.95;82.79;101720.22;5036294;28;20049;-85
2022/12/07 02:36:19;;;;;;;8.35;5.13;;;;;;;5.87;82.50;101708.50;4975167;28;20583;-84
2022/12/07 02:39:14;;;;;;;9.48;5.10;;;;;;;5.86;82.34;101719.81;5036025;28;20083;-85
2022/12/07 02:41:46;;;;;;;8.70;5.30;;;;;;;5.76;82.04;101708.91;5034329;28;20486;-85
2022/12/07 02:44:16;;;;;;;9.40;5.40;;;;;;;5.72;82.39;101700.84;5036371;28;20025;-85
2022/12/07 02:46:48;;;;;;;9.38;5.53;;;;;;;5.74;82.52;101713.22;5036667;28;20132;-85
2022/12/07 02:49:14;;;;;;;9.97;5.77;;;;;;;5.69;82.49;101713.81;5036224;28;20088;-84
2022/12/07 02:51:45;;;;;;;8.90;5.40;;;;;;;5.60;82.49;101701.19;5035100;28;20033;-85
2022/12/07 02:54:17;;;;;;;10.55;5.55;;;;;;;5.61;83.08;101710.88;5018100;28;20436;-85
2022/12/07 02:57:31;;;;;;;13.60;6.20;;;;;;;5.68;82.86;101709.41;5035409;28;20536;-85
2022/12/07 03:00:10;;;;;;;10.98;5.30;;;;;;;5.58;82.99;101704.59;5021505;28;20046;-84
2022/12/07 03:02:50;;;;;;;9.75;5.35;;;;;;;5.63;83.37;101716.19;5035539;28;20033;-85
2022/12/07 03:05:46;;;;;;;7.78;5.10;;;;;;;5.69;83.48;101722.56;5035589;28;20101;-85
2022/12/07 03:08:40;;;;;;;7.88;5.25;;;;;;;5.72;82.94;101711.34;5035501;28;20037;-85
2022/12/07 03:11:13;;;;;;;9.63;5.00;;;;;;;5.72;82.75;101714.84;5035512;28;20034;-85
2022/12/07 03:13:59;;;;;;;9.50;5.03;;;;;;;5.71;82.43;101718.31;5035659;28;20358;-85
2022/12/07 03:16:33;;;;;;;9.48;6.00;;;;;;;5.66;82.93;101706.72;5035348;28;20033;-85
2022/12/07 03:19:02;;;;;;;9.57;4.82;;;;;;;5.66;82.57;101719.84;5018407;28;20381;-85
2022/12/07 03:21:37;;;;;;;7.38;5.30;;;;;;;5.67;83.11;101712.88;5035096;28;20033;-85
2022/12/07 03:24:08;;;;;;;9.90;4.55;;;;;;;5.65;83.24;101704.00;5035221;28;20085;-85
2022/12/07 03:26:38;;;;;;;7.82;4.78;;;;;;;5.68;83.19;101702.44;5017617;28;20044;-84
2022/12/07 03:29:13;;;;;;;9.73;4.97;;;;;;;5.70;83.03;101706.03;5035672;28;20484;-84
2022/12/07 03:31:43;;;;;;;8.25;5.10;;;;;;;5.70;83.00;101713.00;5035830;28;20361;-84
2022/12/07 03:34:14;;;;;;;9.55;4.88;;;;;;;5.67;83.07;101715.50;5035117;28;20386;-85
2022/12/07 03:36:47;;;;;;;8.30;4.67;;;;;;;5.51;82.65;101687.69;5017167;28;20070;-85
2022/12/07 03:39:35;;;;;;;8.05;4.78;;;;;;;5.56;83.30;101698.38;5017308;28;20029;-84
2022/12/07 03:42:04;;;;;;;7.53;4.20;;;;;;;5.63;83.54;101713.56;5017414;28;20051;-84
2022/12/07 03:44:31;;;;;;;10.02;4.68;;;;;;;5.44;82.98;101686.53;5016979;28;20036;-84
2022/12/07 03:47:15;;;;;;;7.63;3.97;;;;;;;5.50;83.90;101699.91;5017275;28;20029;-84
2022/12/07 03:49:45;;;;;;;8.98;4.15;;;;;;;5.57;84.03;101705.41;5016707;28;20041;-84
2022/12/07 03:52:17;;;;;;;6.88;4.28;;;;;;;5.60;84.53;101705.53;5017111;28;20032;-85
2022/12/07 03:55:17;;;;;;;9.77;4.28;;;;;;;5.59;84.24;101695.91;5034669;28;20116;-85
2022/12/07 03:57:45;;;;;;;5.93;4.10;;;;;;;5.59;83.80;101701.13;4997335;28;20065;-85
2022/12/07 04:00:11;;;;;;;8.10;4.20;;;;;;;5.54;84.31;101698.31;5034034;28;20071;-86
2022/12/07 04:02:37;;;;;;;8.43;4.38;;;;;;;5.54;84.88;101706.19;5016296;28;20120;-85
2022/12/07 04:05:03;;;;;;;10.52;4.40;;;;;;;5.49;84.58;101687.63;5016575;28;20524;-85
2022/12/07 04:07:29;;;;;;;8.88;3.97;;;;;;;5.52;84.60;101690.41;5016583;28;20030;-85
2022/12/07 04:09:57;;;;;;;7.25;4.00;;;;;;;5.52;84.39;101687.78;5017215;28;20128;-85
2022/12/07 04:12:25;;;;;;;6.43;4.40;;;;;;;5.61;84.77;101699.47;5017223;28;20073;-85
2022/12/07 04:14:50;;;;;;;6.50;4.25;;;;;;;5.57;85.02;101685.34;5034468;28;20413;-85
2022/12/07 04:17:16;;;;;;;8.80;4.15;;;;;;;5.56;84.80;101672.16;5016458;28;20037;-85
2022/12/07 04:19:46;;;;;;;9.05;4.47;;;;;;;5.72;84.73;101706.97;5017062;28;20040;-84
2022/12/07 04:22:12;;;;;;;10.32;4.25;;;;;;;5.49;85.04;101668.38;5034600;28;20043;-85
2022/12/07 04:24:38;;;;;;;7.15;4.25;;;;;;;5.52;84.74;101672.03;5016540;28;20029;-85
2022/12/07 04:27:04;;;;;;;8.70;3.80;;;;;;;5.66;84.64;101697.97;5000345;28;20099;-84
2022/12/07 04:29:29;;;;;;;10.13;4.00;;;;;;;5.68;84.39;101691.94;5016727;28;20033;-84
2022/12/07 04:31:54;;;;;;;6.68;3.83;;;;;;;5.62;84.35;101670.72;5016493;28;20056;-84
2022/12/07 04:34:20;;;;;;;9.45;3.80;;;;;;;5.72;84.37;101691.25;5016011;28;20030;-85
2022/12/07 04:36:46;;;;;;;9.90;3.90;;;;;;;5.66;84.16;101674.38;5000119;28;20455;-85
2022/12/07 04:39:34;;;;;;;5.75;3.50;;;;;;;5.68;84.51;101667.44;5033779;28;20029;-85
2022/12/07 04:42:01;;;;;;;6.65;3.45;;;;;;;5.67;84.40;101660.44;5016099;28;20029;-85
2022/12/07 04:44:27;;;;;;;7.13;3.53;;;;;;;5.75;84.33;101670.41;5016222;28;20029;-84
2022/12/07 04:46:54;;;;;;;7.18;3.58;;;;;;;5.82;84.17;101689.03;5034258;28;20065;-85
2022/12/07 04:49:25;;;;;;;9.00;3.75;;;;;;;5.90;84.80;101704.25;5015896;28;20034;-85
2022/12/07 04:51:51;;;;;;;7.07;3.58;;;;;;;5.74;84.34;101666.00;5016000;28;20087;-85
2022/12/07 04:54:17;;;;;;;8.05;3.58;;;;;;;5.72;84.66;101659.78;5016130;28;20120;-85
2022/12/07 04:56:42;;;;;;;7.28;3.55;;;;;;;5.65;84.38;101656.81;5015889;28;20525;-85
2022/12/07 04:59:14;;;;;;;5.70;3.75;;;;;;;5.70;84.14;101677.19;5016939;28;20044;-85
2022/12/07 05:01:42;;;;;;;6.43;3.33;;;;;;;5.66;84.33;101666.50;5016160;28;20083;-86
2022/12/07 05:04:10;;;;;;;8.18;3.85;;;;;;;5.68;83.99;101662.22;5015813;28;20329;-84
2022/12/07 05:06:38;;;;;;;9.02;3.83;;;;;;;5.78;83.97;101681.06;4999096;28;20030;-85
2022/12/07 05:09:04;;;;;;;8.43;4.00;;;;;;;5.70;83.96;101660.56;5015685;28;20515;-85
2022/12/07 05:11:41;;;;;;;8.55;4.03;;;;;;;5.73;84.63;101666.81;5015894;28;20112;-85
2022/12/07 05:14:19;;;;;;;8.93;4.10;;;;;;;5.76;83.64;101677.44;5000774;28;20112;-85
2022/12/07 05:16:47;;;;;;;10.73;4.45;;;;;;;5.70;83.94;101685.06;5033108;28;20382;-85
2022/12/07 05:19:13;;;;;;;10.30;4.43;;;;;;;5.60;84.03;101674.09;5015648;28;20489;-85
2022/12/07 05:21:39;;;;;;;8.15;4.30;;;;;;;5.59;84.10;101677.53;5033309;28;20030;-85
2022/12/07 05:24:06;;;;;;;9.27;4.55;;;;;;;5.53;84.34;101673.81;5032989;28;20037;-85
2022/12/07 05:26:31;;;;;;;10.27;4.55;;;;;;;5.59;84.15;101686.31;5033232;28;20064;-85
2022/12/07 05:28:57;;;;;;;10.63;4.55;;;;;;;5.40;84.22;101642.66;5032890;28;20390;-85
2022/12/07 05:31:24;;;;;;;9.50;4.88;;;;;;;5.27;83.85;101635.97;5015731;28;20055;-85
2022/12/07 05:33:50;;;;;;;9.70;4.68;;;;;;;5.48;83.89;101680.59;5015738;28;20037;-85
2022/12/07 05:36:15;;;;;;;11.20;4.97;;;;;;;5.55;83.92;101691.34;5015404;28;20056;-85
2022/12/07 05:38:41;;;;;;;11.05;4.72;;;;;;;5.38;84.18;101667.88;4982916;28;20049;-85
2022/12/07 05:42:11;;;;;;;10.25;4.40;;;;;;;5.47;84.31;101681.41;5033135;28;20030;-85
2022/12/07 05:43:53;;;;;;;10.57;4.85;;;;;;;5.47;84.04;101670.03;5032500;28;20033;-85
2022/12/07 05:46:19;;;;;;;10.65;5.32;;;;;;;5.55;83.91;101679.13;4999320;28;20037;-84
2022/12/07 05:48:44;;;;;;;8.55;4.70;;;;;;;5.45;83.93;101669.97;5015395;28;20052;-85
2022/12/07 05:51:09;;;;;;;9.85;4.78;;;;;;;5.49;83.47;101671.91;4999143;28;20087;-87
2022/12/07 05:53:35;;;;;;;7.05;4.45;;;;;;;5.40;83.55;101667.97;5015726;28;20069;-85
2022/12/07 05:56:00;;;;;;;9.52;5.00;;;;;;;5.31;83.71;101654.44;5015369;28;20458;-84
2022/12/07 06:01:09;;;;;;;7.10;4.40;;;;;;;5.19;83.26;101657.41;5018430;28;20116;-84
2022/12/07 06:03:35;;;;;;;9.10;4.90;;;;;;;5.08;83.46;101653.41;4998886;28;20502;-84
2022/12/07 06:06:00;;;;;;;9.25;4.63;;;;;;;4.97;83.79;101651.19;5015455;28;20072;-85
2022/12/07 06:08:25;;;;;;;8.80;4.38;;;;;;;4.97;84.50;101666.91;5015122;28;20034;-85
2022/12/07 06:12:33;;;;;;;8.98;4.78;;;;;;;4.97;84.36;101666.91;5015869;28;20052;-85
2022/12/07 06:13:39;;;;;;;8.30;4.53;;;;;;;4.88;84.21;101661.25;5004944;28;20426;-85
2022/12/07 06:16:05;;;;;;;10.80;5.20;;;;;;;4.81;85.07;101666.13;5015122;28;20033;-84
2022/12/07 06:18:30;;;;;;;7.78;4.70;;;;;;;4.76;83.98;101658.06;4999279;28;20040;-85
2022/12/07 06:20:56;;;;;;;8.15;4.80;;;;;;;4.77;84.58;101673.81;4982056;28;20040;-84
2022/12/07 06:23:21;;;;;;;8.18;4.70;;;;;;;4.68;84.64;101662.91;4999035;28;20065;-85
2022/12/07 06:25:46;;;;;;;6.65;4.80;;;;;;;4.63;85.00;101671.38;5000586;28;20060;-85
2022/12/07 06:28:12;;;;;;;14.02;5.05;;;;;;;4.54;85.21;101671.84;5001946;28;20427;-85
2022/12/07 06:30:37;;;;;;;10.88;4.63;;;;;;;4.59;85.11;101669.44;5002412;28;20055;-84
2022/12/07 06:33:02;;;;;;;9.10;4.72;;;;;;;4.66;85.17;101667.16;5019095;28;20044;-85
2022/12/07 06:35:28;;;;;;;9.95;4.78;;;;;;;4.76;84.51;101679.00;5018252;28;20469;-84
2022/12/07 06:37:53;;;;;;;9.75;4.78;;;;;;;4.75;84.54;101678.09;5036029;28;20036;-84
2022/12/07 06:40:18;;;;;;;9.10;4.53;;;;;;;4.68;84.86;101677.72;5017879;28;20030;-84
2022/12/07 06:42:44;;;;;;;9.27;4.80;;;;;;;4.69;84.79;101669.94;5001797;28;20029;-84
2022/12/07 06:45:09;;;;;;;7.07;4.70;;;;;;;4.69;85.35;101676.91;5001694;28;20037;-86
2022/12/07 06:47:35;;;;;;;8.40;4.70;;;;;;;4.78;85.48;101674.72;5018315;28;20029;-84
2022/12/07 06:50:00;;;;;;;7.55;4.65;;;;;;;4.83;85.58;101673.19;5018054;28;20072;-84
2022/12/07 06:52:26;;;;;;;9.13;4.80;;;;;;;4.83;85.17;101664.47;5001739;28;20060;-84
2022/12/07 06:54:51;;;;;;;10.00;4.70;;;;;;;4.78;85.72;101661.63;5001593;28;20057;-84
2022/12/07 06:57:20;;;;;;;9.20;4.57;;;;;;;4.80;85.41;101664.31;5017884;28;20390;-84
2022/12/07 06:59:45;;;;;;;8.80;4.70;;;;;;;4.74;85.50;101657.06;4985418;28;20029;-85
2022/12/07 07:02:10;;;;;;;7.35;4.28;;;;;;;4.89;85.90;101678.75;5017872;28;20039;-84
2022/12/07 07:04:36;;;;;;;7.35;3.90;;;;;;;4.77;85.90;101658.13;5001517;28;20397;-84
2022/12/07 07:07:01;;;;;;;8.57;4.60;;;;;;;4.94;85.59;101679.84;5035495;28;20496;-84
2022/12/07 07:09:29;;;;;;;8.73;4.30;;;;;;;5.02;85.31;101682.84;5017544;28;20033;-84
2022/12/07 07:11:54;;;;;;;11.23;4.47;;;;;;;5.03;84.48;101690.75;5035147;28;20038;-84
2022/12/07 07:14:21;;;;;;;12.88;4.60;;;;;;;4.96;84.82;101680.81;5017860;28;20041;-84
2022/12/07 07:16:46;;;;;;;10.88;4.60;;;;;;;4.98;84.35;101691.38;5017589;28;20080;-85
2022/12/07 07:19:11;;;;;;;13.43;4.95;;;;;;;4.92;84.38;101691.06;5017586;28;20494;-85
2022/12/07 07:21:37;;;;;;;9.07;4.22;;;;;;;4.96;84.54;101693.00;5017467;28;20033;-85
2022/12/07 07:24:02;;;;;;;9.73;4.18;;;;;;;4.88;84.72;101687.44;5001376;28;20120;-85
2022/12/07 07:26:27;;;;;;;8.82;3.90;;;;;;;4.91;84.63;101697.13;5001875;28;20422;-85
2022/12/07 07:28:53;;;;;;;7.13;3.92;;;;;;;4.92;84.64;101694.59;5001115;28;20036;-84
2022/12/07 07:31:18;;;;;;;8.65;4.18;;;;;;;4.94;85.01;101692.06;5018090;28;20037;-84
2022/12/07 07:33:46;;;;;;;9.25;4.60;;;;;;;4.99;84.40;101695.78;5000949;28;20037;-85
2022/12/07 07:36:12;;;;;;;7.78;4.35;;;;;;;4.96;84.72;101683.44;5035318;28;20157;-85
2022/12/07 07:38:37;;;;;;;6.22;4.22;;;;;;;4.94;84.85;101676.34;5000771;28;20086;-84
2022/12/07 07:41:02;;;;;;;5.65;3.78;;;;;;;5.01;85.27;101681.94;5000813;28;20216;-85
2022/12/07 07:43:28;;;;;;;7.68;4.03;;;;;;;4.94;84.42;101666.75;5016835;28;20437;-85
2022/12/07 07:45:54;;;;;;;8.52;4.30;;;;;;;5.05;84.23;101697.78;5034774;28;20124;-85
2022/12/07 07:48:19;;;;;;;7.90;4.60;;;;;;;5.02;84.44;101683.72;5001237;28;20033;-85
2022/12/07 07:50:44;;;;;;;10.32;4.60;;;;;;;5.06;84.39;101692.63;5016972;28;20037;-85
2022/12/07 07:53:10;;;;;;;9.50;4.40;;;;;;;5.10;84.80;101705.06;5034373;28;20029;-86
2022/12/07 07:55:35;;;;;;;8.70;4.40;;;;;;;5.02;84.46;101688.06;5000485;28;20033;-84
2022/12/07 07:58:01;;;;;;;11.52;4.00;;;;;;;5.09;85.11;101695.38;5016794;28;20025;-85
2022/12/07 08:00:26;;;;;;;11.50;4.50;;;;;;;4.99;84.93;101680.06;5034622;28;20473;-85
2022/12/07 08:02:51;;;;;;;10.93;4.53;;;;;;;4.94;85.01;101685.09;5016466;28;20033;-85
2022/12/07 08:05:17;;;;;;;8.13;4.70;;;;;;;5.01;85.77;101691.50;5016710;28;20045;-85
2022/12/07 08:07:43;;;;;;;7.78;4.10;;;;;;;5.01;85.72;101695.03;5000219;28;20037;-85
2022/12/07 08:10:12;;;;;;;8.77;4.20;;;;;;;5.04;85.47;101707.38;4984450;28;20033;-84
2022/12/07 08:13:10;;;;;;;8.23;4.32;;;;;;;5.05;85.37;101700.41;5034225;28;20030;-84
2022/12/07 08:15:26;;;;;;;7.07;4.10;;;;;;;5.04;84.98;101696.88;5033967;28;20033;-85
2022/12/07 08:17:52;;;;;;;12.18;4.35;;;;;;;4.97;84.32;101679.13;5017298;28;20048;-85
2022/12/07 08:20:17;;;;;;;9.05;4.43;;;;;;;5.12;84.25;101708.63;5034158;28;20476;-84
2022/12/07 08:22:42;;;;;;;10.65;4.50;;;;;;;5.09;84.74;101690.13;5016258;28;20083;-85
2022/12/07 08:25:08;;;;;;;9.60;4.25;;;;;;;5.12;84.24;101705.09;5016036;28;20481;-84
2022/12/07 08:27:33;;;;;;;10.00;4.28;;;;;;;5.16;84.30;101709.66;4999945;28;20045;-84
2022/12/07 08:29:58;;;;;;;8.02;4.25;;;;;;;5.18;84.83;101706.31;5000112;28;20136;-86
2022/12/07 08:32:24;;;;;;;10.13;4.18;;;;;;;5.33;84.77;101703.47;4999919;28;20493;-86
2022/12/07 08:34:49;;;;;;;10.18;4.50;;;;;;;5.53;84.43;101712.25;5033633;28;20137;-85
2022/12/07 08:37:15;;;;;;;11.18;4.30;;;;;;;5.62;84.22;101720.53;5016148;28;20052;-85
2022/12/07 08:39:40;;;;;;;10.05;4.50;;;;;;;5.70;84.36;101713.91;4999752;28;20171;-86
2022/12/07 08:42:05;;;;;;;9.95;4.20;;;;;;;5.95;84.30;101712.38;5016110;28;20037;-85
2022/12/07 08:44:31;;;;;;;7.78;3.83;;;;;;;6.14;83.39;101724.56;5016413;28;20142;-85
2022/12/07 08:47:01;;;;;;;9.20;3.80;;;;;;;6.13;82.58;101700.06;5034051;28;20037;-84
2022/12/07 08:49:39;;;;;;;7.30;3.65;;;;;;;6.22;82.94;101689.94;5015600;28;20021;-86
2022/12/07 08:52:05;;;;;;;8.55;3.75;;;;;;;6.35;82.36;101695.72;5016149;28;20037;-85
2022/12/07 08:54:34;;;;;;;8.80;3.80;;;;;;;6.14;81.76;101683.47;5033614;28;20060;-84
2022/12/07 08:56:59;;;;;;;6.22;3.38;;;;;;;6.33;82.53;101713.09;5033520;28;20122;-83
2022/12/07 08:59:27;;;;;;;12.93;4.13;;;;;;;6.20;82.12;101712.59;5015698;28;20057;-83
2022/12/07 09:01:52;;;;;;;9.65;4.15;;;;;;;6.14;81.68;101704.47;5033624;28;20045;-83
2022/12/07 09:04:20;;;;;;;11.32;3.70;;;;;;;6.04;82.33;101694.44;4999056;28;20025;-85
2022/12/07 09:06:45;;;;;;;7.13;3.50;;;;;;;6.02;82.42;101693.44;5033451;28;20065;-84
2022/12/07 09:09:14;;;;;;;8.48;3.35;;;;;;;6.04;82.61;101691.81;5015864;28;20104;-85
2022/12/07 09:11:39;;;;;;;7.93;3.50;;;;;;;6.10;82.54;101704.28;5015948;28;20033;-85
2022/12/07 09:14:10;;;;;;;6.25;3.25;;;;;;;6.13;82.74;101697.44;4999289;28;20030;-86
2022/12/07 09:16:36;;;;;;;9.07;3.30;;;;;;;6.11;82.69;101699.09;5033010;28;20025;-86
2022/12/07 09:19:01;;;;;;;7.95;3.50;;;;;;;6.16;82.63;101701.91;5015635;28;20065;-85
2022/12/07 09:21:27;;;;;;;9.07;3.33;;;;;;;6.19;82.45;101708.19;5033004;28;20030;-85
2022/12/07 09:23:52;;;;;;;7.38;3.33;;;;;;;6.17;82.59;101703.72;4999996;28;20136;-86
2022/12/07 09:26:20;;;;;;;17.02;3.80;;;;;;;6.20;82.20;101712.59;5033718;28;20033;-85
2022/12/07 09:28:50;;;;;;;9.50;3.28;;;;;;;6.05;82.51;101675.22;5016548;28;20041;-86
2022/12/07 09:31:18;;;;;;;6.15;3.22;;;;;;;6.33;82.03;101719.25;5017188;28;20033;-86
2022/12/07 09:33:53;;;;;;;5.38;2.97;;;;;;;6.17;81.65;101688.88;5033723;28;20116;-89
2022/12/07 09:36:21;;;;;;;6.78;3.10;;;;;;;6.10;81.27;101667.53;5000201;28;20054;-86
2022/12/07 09:38:51;;;;;;;9.02;3.08;;;;;;;6.21;81.55;101688.16;5033845;28;20069;-90
2022/12/07 09:41:17;;;;;;;8.35;3.08;;;;;;;6.14;80.75;101680.84;5033728;28;20026;-89
2022/12/07 09:43:43;;;;;;;15.57;3.45;;;;;;;6.17;81.28;101682.72;5015040;28;20029;-88
2022/12/07 09:46:17;;;;;;;7.63;2.97;;;;;;;6.35;80.97;101700.97;5015389;28;20124;-88
2022/12/07 09:48:43;;;;;;;6.03;3.25;;;;;;;6.34;81.10;101699.13;5033161;28;20072;-88
2022/12/07 09:51:14;;;;;;;8.70;3.78;;;;;;;6.46;81.59;101710.16;5014989;28;20029;-86
2022/12/07 09:53:56;;;;;;;7.90;3.40;;;;;;;6.38;81.44;101681.00;5015584;28;20029;-90
2022/12/07 09:56:22;;;;;;;6.37;3.53;;;;;;;6.62;82.25;101681.06;5015293;28;20124;-84
2022/12/07 09:58:49;;;;;;;8.80;4.05;;;;;;;6.84;80.49;101671.41;5015293;28;20343;-84
2022/12/07 10:01:20;;;;;;;8.65;3.83;;;;;;;7.35;80.59;101690.91;5036541;28;20018;-87
2022/12/07 10:03:51;;;;;;;11.45;3.90;;;;;;;7.73;79.12;101699.31;5019721;28;20350;-87
2022/12/07 10:06:17;;;;;;;7.35;3.67;;;;;;;7.80;77.72;101684.66;5036917;28;20025;-84
2022/12/07 10:08:43;;;;;;;10.40;3.83;;;;;;;7.96;77.94;101698.38;5019141;28;20030;-87
2022/12/07 10:11:14;;;;;;;8.60;3.70;;;;;;;8.24;78.08;101689.69;5002651;28;20040;-89
2022/12/07 10:13:42;;;;;;;11.55;3.67;;;;;;;8.58;76.83;101690.84;5037054;28;20026;-88
2022/12/07 10:16:40;;;;;;;12.32;4.10;;;;;;;8.77;76.20;101665.97;5018829;28;20029;-89
2022/12/07 10:19:27;;;;;;;9.75;3.70;;;;;;;8.91;75.52;101656.75;5040728;28;20032;-90
2022/12/07 10:22:13;;;;;;;8.45;3.83;;;;;;;9.23;75.19;101670.88;5019891;28;20029;-90
2022/12/07 10:24:42;;;;;;;9.13;3.80;;;;;;;9.25;72.82;101645.47;5018328;28;20029;-89
2022/12/07 10:27:33;;;;;;;9.43;3.53;;;;;;;9.16;73.58;101639.91;5019244;28;20037;-91
2022/12/07 10:29:59;;;;;;;8.20;3.50;;;;;;;9.21;73.24;101655.91;5018699;28;20026;-88
2022/12/07 10:32:35;;;;;;;9.68;3.38;;;;;;;9.02;72.65;101635.97;5035944;28;20030;-89
2022/12/07 10:35:21;;;;;;;8.20;3.30;;;;;;;9.15;73.79;101674.16;5018183;28;20044;-84
2022/12/07 10:37:47;;;;;;;8.25;3.28;;;;;;;8.91;73.36;101645.31;5018679;28;20366;-89
2022/12/07 10:40:34;;;;;;;10.77;3.65;;;;;;;8.75;74.50;101636.06;5018653;28;20044;-92
2022/12/07 10:43:18;;;;;;;6.85;3.47;;;;;;;8.84;74.24;101665.31;5018279;28;20068;-91
2022/12/07 10:46:08;;;;;;;8.63;3.83;;;;;;;8.85;74.90;101656.56;5018298;28;20029;-88
2022/12/07 10:48:39;;;;;;;7.60;4.03;;;;;;;9.05;75.47;101651.91;5018548;28;20111;-89
2022/12/07 10:51:25;;;;;;;12.30;4.22;;;;;;;9.17;74.99;101662.81;5035725;28;20386;-90
2022/12/07 10:54:16;;;;;;;8.70;3.60;;;;;;;9.30;75.23;101663.19;5035724;28;20034;-88
2022/12/07 10:57:16;;;;;;;7.10;3.50;;;;;;;9.47;75.05;101646.97;5018506;28;20048;-90
2022/12/07 10:59:53;;;;;;;8.50;3.38;;;;;;;9.56;73.48;101646.34;5017770;28;20041;-90
2022/12/07 11:02:49;;;;;;;8.85;3.90;;;;;;;9.51;73.26;101638.28;5018697;28;20029;-90
2022/12/07 11:05:23;;;;;;;12.88;3.08;;;;;;;9.44;73.07;101630.16;5019376;28;20037;-89
2022/12/07 11:07:55;;;;;;;10.15;3.10;;;;;;;9.54;72.51;101641.00;5017996;28;20036;-86
2022/12/07 11:10:27;;;;;;;6.05;3.10;;;;;;;9.51;72.55;101638.28;5018219;28;20026;-84
2022/12/07 11:13:20;;;;;;;5.93;2.92;;;;;;;9.50;72.41;101635.59;5034797;28;20393;-85
2022/12/07 11:16:01;;;;;;;10.13;3.00;;;;;;;9.52;73.34;101631.28;5007072;28;20489;-85
2022/12/07 11:18:35;;;;;;;8.50;3.25;;;;;;;9.48;72.92;101632.03;5035584;28;20030;-85
2022/12/07 11:21:07;;;;;;;9.07;3.10;;;;;;;9.48;73.51;101622.38;5035450;28;20417;-86
2022/12/07 11:23:51;;;;;;;9.98;3.05;;;;;;;9.46;73.44;101618.81;5035244;28;20133;-85
2022/12/07 11:26:44;;;;;;;8.30;3.30;;;;;;;9.37;72.76;101612.38;5035829;28;20033;-85
2022/12/07 11:29:22;;;;;;;9.73;4.07;;;;;;;9.31;72.19;101612.22;5035019;28;20017;-86
2022/12/07 11:32:07;;;;;;;9.32;4.10;;;;;;;9.37;72.67;101623.81;5035213;28;20090;-86
2022/12/07 11:34:59;;;;;;;8.20;3.58;;;;;;;9.30;71.74;101613.97;5034899;28;20060;-87
2022/12/07 11:37:31;;;;;;;10.20;3.70;;;;;;;9.21;72.16;101593.50;5017986;28;20111;-86
2022/12/07 11:40:03;;;;;;;12.43;3.55;;;;;;;9.24;72.49;101613.75;5035022;28;20029;-86
2022/12/07 11:42:40;;;;;;;14.65;3.20;;;;;;;9.08;72.07;101578.19;5035551;28;20040;-86
2022/12/07 11:45:12;;;;;;;7.45;2.80;;;;;;;9.30;72.58;101615.72;5017683;28;20421;-85
2022/12/07 11:48:16;;;;;;;6.88;2.80;;;;;;;9.35;72.85;101614.97;5034918;28;20548;-85
2022/12/07 11:50:56;;;;;;;6.38;2.90;;;;;;;9.11;72.15;101595.81;5017062;28;20037;-89